Gillam, Gillam Airport (CYGX)

NameGillam Airport
CityGillam
CountryCanada
ICAOCYGX
IATAYGX
Altitude145 m
CoordinatesGoogle Map
Live Air TrafficLiveATC.net
METARCYGX 110900Z 17007KT 4SM -SN OVC006 M14/M16 A2995 RMK SC8 SLP158
2018-12-11 09:00:00 Wind: South-Southeast (170°) 3.6 m/s - Visibility: 6437.36 m - Weather: Light Snow - Temperature: -14 °C - Dew point: -16 °C - Humidity: 85% - Pressure: 1014.22 hPa
Statistics

The table below shows the detailed information of all flights to/from Gillam, Gillam Airport (CYGX).